LFMT/MPL METAR and TAF weather

Enter ICAO airport designator
Station Type Date Time Source
LFMT METAR 2020/01/17 22:30 UTC NOAA

LFMT 172230Z AUTO 28014KT CAVOK 10/03 Q1029 NOSIG


Station Type Date Time Source
LFMT Decoded METAR 2020/01/17 22:30 UTC NOAA

Montpellier, France (LFMT) 43-35N 003-58E 6M
Jan 17, 2020 - 05:30 PM EST / 2020.01.17 2230 UTC
Wind: from the W (280 degrees) at 16 MPH (14 KT):0
Visibility: greater than 7 mile(s):0
Temperature: 50 F (10 C)
Dew Point: 37 F (3 C)
Relative Humidity: 61%
Pressure (altimeter): 30.39 in. Hg (1029 hPa)
ob: LFMT 172230Z AUTO 28014KT CAVOK 10/03 Q1029 NOSIG
cycle: 22

Station Type Date Time Source
LFMT TAF 2020/01/17 21:21 UTC NOAA

TAF TAF LFMT 172000Z 1721/1821 30015KT CAVOK
BECMG 1808/1810 36010KT

Example: see airport list